.
WxDataArchive / Data Records for 2011-07-20
2011-07-19 July 2011 2011-07-21

Data Records for Wednesday, 20 July 2011

Time	Temp	Chill	HIndex	Humid	Dewpt	 Wind 	HiWind	WindDir	Rain 	Barom 
-----	----	-----	------	-----	-----	------	------	-------	-----	----- 
00:00	80.7	80.7	85.4	78	73.2	0	0	---	0.00	29.817 
00:05	80.5	80.5	85.0	78	73.0	0	0	---	0.00	29.817 
00:10	80.3	80.3	84.7	79	73.2	0	0	---	0.00	29.817 
00:15	80.1	80.1	84.4	80	73.4	0	1	0	0.00	29.820 
00:20	80.1	80.1	84.4	80	73.4	0	1	0	0.00	29.820 
00:25	80.1	80.1	84.3	79	73.0	0	0	---	0.00	29.820 
00:30	80.1	80.1	84.3	79	73.0	0	0	---	0.00	29.823 
00:35	79.9	79.9	83.9	79	72.8	0	0	---	0.00	29.823 
00:40	79.8	79.8	83.7	79	72.7	0	0	---	0.00	29.823 
00:45	79.8	79.8	83.8	80	73.1	0	0	---	0.00	29.830 
00:50	79.6	79.6	83.4	80	72.9	0	0	---	0.00	29.830 
00:55	79.4	79.4	83.1	81	73.0	0	0	---	0.00	29.830 
01:00	79.4	79.4	83.1	81	73.0	0	0	---	0.00	29.832 
01:05	79.2	79.2	82.7	81	72.8	0	0	---	0.00	29.832 
01:10	79.2	79.2	82.7	81	72.8	0	0	---	0.00	29.832 
01:15	79.0	79.0	82.3	82	73.0	0	0	---	0.00	29.833 
01:20	79.0	79.0	82.3	82	73.0	0	0	---	0.00	29.833 
01:25	78.8	78.8	81.9	82	72.8	0	0	---	0.00	29.833 
01:30	78.8	78.8	81.9	82	72.8	0	0	---	0.00	29.834 
01:35	78.6	78.6	81.5	82	72.6	0	0	---	0.00	29.834 
01:40	78.5	78.5	81.4	83	72.9	0	0	---	0.00	29.834 
01:45	78.3	78.3	81.0	83	72.7	0	0	---	0.00	29.843 
01:50	78.3	78.3	81.0	84	73.1	0	0	---	0.00	29.843 
01:55	78.1	78.1	80.6	84	72.9	0	0	---	0.00	29.843 
02:00	78.1	78.1	80.6	84	72.9	0	0	---	0.00	29.848 
02:05	77.9	77.9	80.2	84	72.7	0	0	---	0.00	29.848 
02:10	77.9	77.9	80.2	84	72.7	0	0	---	0.00	29.848 
02:15	77.9	77.9	80.2	84	72.7	0	0	---	0.00	29.848 
02:20	77.9	77.9	80.2	84	72.7	0	0	---	0.00	29.848 
02:25	77.7	77.7	79.8	84	72.5	0	0	---	0.00	29.848 
02:30	77.7	77.7	79.8	84	72.5	0	0	---	0.00	29.846 
02:35	77.6	77.6	79.6	84	72.4	0	0	---	0.00	29.846 
02:40	77.4	77.4	79.2	85	72.5	0	0	---	0.00	29.846 
02:45	77.2	77.2	78.8	85	72.3	0	0	---	0.00	29.847 
02:50	77.2	77.2	78.8	85	72.3	0	0	---	0.00	29.847 
02:55	77.0	77.0	78.4	85	72.1	0	0	---	0.00	29.847 
03:00	77.0	77.0	78.4	86	72.5	0	0	---	0.00	29.842 
03:05	76.8	76.8	78.0	86	72.3	0	0	---	0.00	29.842 
03:10	76.8	76.8	78.0	86	72.3	0	0	---	0.00	29.842 
03:15	76.7	76.7	77.8	86	72.2	0	0	---	0.00	29.837 
03:20	76.5	76.5	77.3	87	72.3	0	0	---	0.00	29.837 
03:25	76.3	76.3	76.9	87	72.1	0	0	---	0.00	29.837 
03:30	76.3	76.3	76.9	87	72.1	0	0	---	0.00	29.838 
03:35	76.1	76.1	76.5	88	72.3	0	0	---	0.00	29.838 
03:40	76.0	76.0	76.3	88	72.2	0	0	---	0.00	29.838 
03:45	76.0	76.0	76.3	88	72.2	0	0	---	0.00	29.836 
03:50	75.8	75.8	75.9	88	72.0	0	0	---	0.00	29.836 
03:55	75.8	75.8	75.9	88	72.0	0	0	---	0.00	29.836 
04:00	75.6	75.6	75.4	89	72.1	0	0	---	0.00	29.830 
04:05	75.4	75.4	75.0	89	71.9	0	0	---	0.00	29.830 
04:10	75.4	75.4	75.0	89	71.9	0	0	---	0.00	29.830 
04:15	75.3	75.3	74.8	89	71.8	0	0	---	0.00	29.824 
04:20	75.3	75.3	74.8	89	71.8	0	0	---	0.00	29.824 
04:25	75.3	75.3	74.7	90	72.2	0	0	---	0.00	29.824 
04:30	75.1	75.1	74.3	90	72.0	0	0	---	0.00	29.818 
04:35	75.1	75.1	74.3	90	72.0	0	0	---	0.00	29.818 
04:40	75.1	75.1	74.3	90	72.0	0	0	---	0.00	29.818 
04:45	74.9	74.9	74.9	90	71.8	0	0	---	0.00	29.828 
04:50	74.9	74.9	74.9	91	72.1	0	0	---	0.00	29.828 
04:55	74.7	74.7	74.7	91	71.9	0	0	---	0.00	29.828 
05:00	74.7	74.7	74.7	91	71.9	0	0	---	0.00	29.826 
05:05	74.6	74.6	74.6	91	71.8	0	0	---	0.00	29.826 
05:10	74.6	74.6	74.6	91	71.8	0	0	---	0.00	29.826 
05:15	74.4	74.4	74.4	91	71.6	0	0	---	0.00	29.822 
05:20	74.4	74.4	74.4	92	71.9	0	0	---	0.00	29.822 
05:25	74.4	74.4	74.4	92	71.9	0	0	---	0.00	29.822 
05:30	74.2	74.2	74.2	92	71.7	0	0	---	0.00	29.831 
05:35	74.2	74.2	74.2	92	71.7	0	0	---	0.00	29.831 
05:40	74.0	74.0	74.0	92	71.5	0	0	---	0.00	29.831 
05:45	74.0	74.0	74.0	92	71.5	0	0	---	0.00	29.834 
05:50	73.9	73.9	73.9	92	71.4	0	0	---	0.00	29.834 
05:55	73.9	73.9	73.9	92	71.4	0	0	---	0.00	29.834 
06:00	73.9	73.9	73.9	92	71.4	0	0	---	0.00	29.836 
06:05	73.9	73.9	73.9	92	71.4	0	0	---	0.00	29.836 
06:10	73.9	73.9	73.9	92	71.4	0	0	---	0.00	29.836 
06:15	74.0	74.0	74.0	93	71.8	0	0	---	0.00	29.844 
06:20	74.2	74.2	74.2	93	72.0	0	0	---	0.00	29.844 
06:25	74.2	74.2	74.2	93	72.0	0	0	---	0.00	29.844 
06:30	74.2	74.2	74.2	93	72.0	0	0	---	0.00	29.843 
06:35	74.2	74.2	74.2	93	72.0	0	0	---	0.00	29.843 
06:40	74.0	74.0	74.0	93	71.8	0	0	---	0.00	29.843 
06:45	74.0	74.0	74.0	93	71.8	0	0	---	0.00	29.848 
06:50	74.0	74.0	74.0	93	71.8	0	0	---	0.00	29.848 
06:55	74.2	74.2	74.2	93	72.0	0	0	---	0.00	29.848 
07:00	74.2	74.2	74.2	93	72.0	0	0	---	0.00	29.854 
07:05	74.2	74.2	74.2	93	72.0	0	0	---	0.00	29.854 
07:10	74.4	74.4	74.4	93	72.2	0	0	---	0.00	29.854 
07:15	74.6	74.6	74.6	93	72.4	0	0	---	0.00	29.852 
07:20	74.7	74.7	74.7	93	72.5	0	0	---	0.00	29.852 
07:25	74.9	74.9	74.9	93	72.7	0	0	---	0.00	29.852 
07:30	75.1	75.1	73.8	93	72.9	0	0	---	0.00	29.853 
07:35	75.3	75.3	74.2	93	73.1	0	0	---	0.00	29.853 
07:40	75.6	75.6	74.8	93	73.4	0	0	---	0.00	29.853 
07:45	75.8	75.8	75.3	93	73.6	0	0	---	0.00	29.841 
07:50	76.1	76.1	75.9	93	73.9	0	1	0	0.00	29.841 
07:55	76.3	76.3	76.4	93	74.1	0	1	0	0.00	29.841 
08:00	76.7	76.7	77.4	92	74.2	0	1	0	0.00	29.838 
08:05	76.8	76.8	77.6	92	74.3	0	0	---	0.00	29.838 
08:10	77.0	77.0	78.1	92	74.5	0	0	---	0.00	29.838 
08:15	77.4	77.4	79.0	92	74.9	0	0	---	0.00	29.838 
08:20	77.6	77.6	79.5	92	75.1	0	0	---	0.00	29.838 
08:25	77.7	77.7	79.8	92	75.2	0	0	---	0.00	29.838 
08:30	77.9	77.9	80.3	92	75.4	0	1	0	0.00	29.851 
08:35	78.3	78.3	81.3	91	75.4	0	0	---	0.00	29.851 
08:40	78.6	78.6	82.0	91	75.7	0	0	---	0.00	29.851 
08:45	78.8	78.8	82.5	90	75.6	0	0	---	0.00	29.836 
08:50	79.6	79.6	84.4	89	76.1	0	0	---	0.00	29.836 
08:55	80.3	80.3	86.0	87	76.1	0	1	0	0.00	29.836 
09:00	80.9	80.9	87.0	84	75.6	0	1	0	0.00	29.820 
09:05	81.6	81.6	88.8	84	76.3	0	0	---	0.00	29.820 
09:10	81.8	81.8	89.0	83	76.1	0	2	0	0.00	29.820 
09:15	82.0	82.0	89.3	82	75.9	0	1	0	0.00	29.817 
09:20	82.2	82.2	89.8	82	76.1	0	2	0	0.00	29.817 
09:25	82.6	82.6	90.6	81	76.2	0	1	0	0.00	29.817 
09:30	83.0	83.0	91.3	80	76.2	0	3	0	0.00	29.814 
09:35	83.4	83.4	92.0	79	76.2	1	3	90	0.00	29.814 
09:40	83.8	83.8	92.7	78	76.2	0	1	90	0.00	29.814 
09:45	84.1	84.1	93.1	77	76.1	0	2	90	0.00	29.812 
09:50	84.1	84.1	93.1	77	76.1	0	1	135	0.00	29.812 
09:55	84.1	84.1	93.1	77	76.1	0	2	90	0.00	29.812 
10:00	84.3	84.3	93.6	77	76.3	0	2	90	0.00	29.810 
10:05	84.1	84.1	93.1	77	76.1	0	2	90	0.00	29.810 
10:10	84.1	84.1	93.1	77	76.1	0	3	90	0.00	29.810 
10:15	84.0	84.0	92.9	77	76.0	0	2	90	0.00	29.813 
10:20	84.1	84.1	93.1	77	76.1	0	2	90	0.00	29.813 
10:25	84.1	84.1	93.1	77	76.1	0	1	90	0.00	29.813 
10:30	84.5	84.5	93.8	76	76.1	0	2	135	0.00	29.812 
10:35	84.7	84.7	93.9	75	75.9	1	3	270	0.00	29.812 
10:40	84.9	84.9	94.4	75	76.1	0	2	270	0.00	29.812 
10:45	85.1	85.1	94.9	75	76.3	0	2	270	0.00	29.821 
10:50	85.3	85.3	94.6	73	75.6	0	1	270	0.00	29.821 
10:55	85.5	85.5	95.1	73	75.8	0	2	270	0.00	29.821 
11:00	85.5	85.5	94.7	72	75.4	1	3	270	0.00	29.830 
11:05	85.3	85.3	94.2	72	75.2	0	2	270	0.00	29.830 
11:10	85.3	85.3	94.2	72	75.2	1	3	270	0.00	29.830 
11:15	85.1	85.1	93.7	72	75.0	0	1	270	0.00	29.837 
11:20	85.1	85.1	93.3	71	74.6	0	2	270	0.00	29.837 
11:25	85.1	85.1	93.3	71	74.6	0	2	270	0.00	29.837 
11:30	85.1	85.1	93.3	71	74.6	1	2	270	0.00	29.838 
11:35	85.3	85.3	93.8	71	74.8	0	1	270	0.00	29.838 
11:40	85.3	85.3	93.4	70	74.4	0	0	---	0.00	29.838 
11:45	85.3	85.3	93.8	71	74.8	0	0	---	0.00	29.842 
11:50	85.3	85.3	93.8	71	74.8	0	0	---	0.00	29.842 
11:55	85.3	85.3	93.8	71	74.8	0	0	---	0.00	29.842 
12:00	85.5	85.5	94.3	71	75.0	0	0	---	0.00	29.849 
12:05	85.5	85.5	94.3	71	75.0	0	0	---	0.00	29.849 
12:10	85.5	85.5	94.3	71	75.0	0	0	---	0.00	29.849 
12:15	85.7	85.7	94.8	71	75.2	0	0	---	0.00	29.853 
12:20	85.7	85.7	94.8	71	75.2	0	0	---	0.00	29.853 
12:25	85.9	85.9	95.3	71	75.4	0	0	---	0.00	29.853 
12:30	86.1	86.1	95.8	71	75.6	0	0	---	0.00	29.838 
12:35	86.5	86.5	96.8	71	75.9	0	0	---	0.00	29.838 
12:40	87.0	87.0	98.1	71	76.4	0	1	270	0.00	29.838 
12:45	86.7	86.7	96.8	70	75.7	0	2	270	0.00	29.834 
12:50	86.7	86.7	97.3	71	76.1	0	2	270	0.00	29.834 
12:55	86.7	86.7	97.3	71	76.1	0	2	270	0.00	29.834 
13:00	86.5	86.5	96.8	71	75.9	1	3	270	0.00	29.824 
13:05	86.5	86.5	97.2	72	76.4	0	2	270	0.00	29.824 
13:10	86.5	86.5	97.2	72	76.4	1	5	270	0.00	29.824 
13:15	86.3	86.3	96.7	72	76.2	2	3	270	0.00	29.821 
13:20	86.5	86.5	97.2	72	76.4	1	4	270	0.00	29.821 
13:25	86.5	86.5	97.2	72	76.4	0	3	248	0.00	29.821 
13:30	86.7	86.7	97.8	72	76.6	0	2	248	0.00	29.821 
13:35	87.0	87.0	98.6	72	76.8	1	2	248	0.00	29.821 
13:40	87.0	87.0	98.1	71	76.4	0	2	248	0.00	29.821 
13:45	87.2	87.2	98.1	70	76.2	0	2	248	0.00	29.824 
13:50	87.4	87.4	98.1	69	75.9	0	1	248	0.00	29.824 
13:55	87.8	87.8	98.6	68	75.9	0	1	248	0.00	29.824 
14:00	88.0	88.0	98.6	67	75.6	0	2	248	0.00	29.823 
14:05	88.2	88.2	98.6	66	75.4	0	2	248	0.00	29.823 
14:10	88.4	88.4	98.5	65	75.1	0	2	248	0.00	29.823 
14:15	88.8	88.8	100.1	66	75.9	0	1	248	0.00	29.823 
14:20	89.7	89.7	100.7	63	75.4	0	2	248	0.00	29.823 
14:25	91.0	91.0	103.4	62	76.1	0	1	248	0.00	29.823 
14:30	92.5	92.5	103.9	57	75.0	0	2	248	0.00	29.821 
14:35	93.4	93.4	104.8	55	74.8	0	2	248	0.00	29.821 
14:40	94.0	94.0	104.9	53	74.2	1	3	248	0.00	29.821 
14:45	94.5	94.5	105.4	52	74.1	0	2	248	0.00	29.815 
14:50	95.4	95.4	106.2	50	73.8	0	1	248	0.00	29.815 
14:55	96.1	96.1	102.3	42	69.2	1	5	248	0.00	29.815 
15:00	96.6	96.6	106.1	46	72.4	1	3	270	0.00	29.806 
15:05	97.1	97.1	105.1	43	70.8	2	5	270	0.00	29.806 
15:10	97.3	97.3	105.5	43	71.0	2	4	270	0.00	29.806 
15:15	97.3	97.3	105.5	43	71.0	1	3	292	0.00	29.805 
15:20	98.0	98.0	107.1	43	71.6	2	6	292	0.00	29.805 
15:25	98.0	98.0	107.1	43	71.6	3	6	270	0.00	29.805 
15:30	98.2	98.2	106.8	42	71.1	2	3	270	0.00	29.799 
15:35	98.2	98.2	107.5	43	71.8	2	5	270	0.00	29.799 
15:40	98.0	98.0	106.3	42	70.9	2	9	292	0.00	29.799 
15:45	97.8	97.8	106.6	43	71.4	3	9	270	0.00	29.796 
15:50	98.0	98.0	107.1	43	71.6	2	7	292	0.00	29.796 
15:55	98.0	98.0	107.1	43	71.6	1	4	292	0.00	29.796 
16:00	98.2	98.2	106.8	42	71.1	2	5	292	0.00	29.791 
16:05	97.8	97.8	107.4	44	72.1	2	4	292	0.00	29.791 
16:10	97.3	97.3	106.2	44	71.7	1	4	315	0.00	29.791 
16:15	97.5	97.5	106.7	44	71.9	2	4	315	0.00	29.790 
16:20	97.8	97.8	106.6	43	71.4	3	6	270	0.00	29.790 
16:25	97.8	97.8	107.4	44	72.1	1	2	270	0.00	29.790 
16:30	98.2	98.2	107.5	43	71.8	2	4	270	0.00	29.787 
16:35	98.5	98.5	108.2	43	72.1	2	4	270	0.00	29.787 
16:40	97.8	97.8	106.6	43	71.4	1	3	315	0.00	29.787 
16:45	97.5	97.5	106.0	43	71.2	1	4	315	0.00	29.785 
16:50	97.5	97.5	106.0	43	71.2	1	4	292	0.00	29.785 
16:55	97.3	97.3	105.5	43	71.0	2	4	338	0.00	29.785 
17:00	97.5	97.5	106.7	44	71.9	2	5	292	0.00	29.783 
17:05	98.0	98.0	108.6	45	73.0	2	4	315	0.00	29.783 
17:10	97.8	97.8	107.4	44	72.1	2	6	292	0.00	29.783 
17:15	97.5	97.5	107.4	45	72.5	2	4	270	0.00	29.770 
17:20	97.1	97.1	105.1	43	70.8	2	5	270	0.00	29.770 
17:25	97.5	97.5	107.4	45	72.5	2	4	270	0.00	29.770 
17:30	97.8	97.8	108.1	45	72.8	1	4	270	0.00	29.769 
17:35	97.1	97.1	107.3	46	72.8	3	5	270	0.00	29.769 
17:40	96.3	96.3	105.4	46	72.1	2	5	270	0.00	29.769 
17:45	96.1	96.1	105.7	47	72.6	3	5	270	0.00	29.769 
17:50	95.9	95.9	106.6	49	73.6	2	5	270	0.00	29.769 
17:55	96.3	96.3	106.9	48	73.4	2	4	292	0.00	29.769 
18:00	96.8	96.8	107.3	47	73.2	1	3	292	0.00	29.763 
18:05	96.8	96.8	106.6	46	72.5	3	5	315	0.00	29.763 
18:10	96.1	96.1	106.4	48	73.2	1	4	270	0.00	29.763 
18:15	96.1	96.1	105.0	46	71.9	3	5	315	0.00	29.762 
18:20	96.1	96.1	105.0	46	71.9	2	4	270	0.00	29.762 
18:25	96.6	96.6	106.1	46	72.4	2	4	270	0.00	29.762 
18:30	96.6	96.6	104.7	44	71.1	2	4	315	0.00	29.759 
18:35	96.6	96.6	104.7	44	71.1	2	5	292	0.00	29.759 
18:40	96.6	96.6	104.7	44	71.1	2	4	292	0.00	29.759 
18:45	96.3	96.3	104.7	45	71.4	1	3	292	0.00	29.763 
18:50	96.1	96.1	105.7	47	72.6	1	4	292	0.00	29.763 
18:55	96.1	96.1	105.7	47	72.6	1	4	292	0.00	29.763 
19:00	96.1	96.1	106.4	48	73.2	1	4	292	0.00	29.764 
19:05	96.1	96.1	107.1	49	73.8	1	3	270	0.00	29.764 
19:10	95.9	95.9	106.6	49	73.6	1	3	270	0.00	29.764 
19:15	95.9	95.9	107.4	50	74.2	1	3	270	0.00	29.767 
19:20	95.6	95.6	107.4	51	74.5	2	5	270	0.00	29.767 
19:25	95.4	95.4	107.7	52	74.9	2	5	270	0.00	29.767 
19:30	95.4	95.4	107.7	52	74.9	2	5	270	0.00	29.770 
19:35	95.1	95.1	107.7	53	75.2	2	5	270	0.00	29.770 
19:40	94.7	94.7	107.4	54	75.4	0	2	270	0.00	29.770 
19:45	94.5	94.5	106.9	54	75.2	0	2	270	0.00	29.767 
19:50	94.5	94.5	106.9	54	75.2	1	2	270	0.00	29.767 
19:55	94.7	94.7	107.4	54	75.4	1	3	270	0.00	29.767 
20:00	94.7	94.7	107.4	54	75.4	1	3	270	0.00	29.768 
20:05	94.7	94.7	107.4	54	75.4	1	4	292	0.00	29.768 
20:10	94.7	94.7	106.6	53	74.9	2	5	270	0.00	29.768 
20:15	94.5	94.5	106.9	54	75.2	1	3	270	0.00	29.767 
20:20	94.0	94.0	104.9	53	74.2	1	3	270	0.00	29.767 
20:25	93.8	93.8	105.1	54	74.6	1	3	270	0.00	29.767 
20:30	93.6	93.6	104.6	54	74.4	0	2	270	0.00	29.773 
20:35	93.4	93.4	104.8	55	74.8	0	2	270	0.00	29.773 
20:40	93.2	93.2	104.3	55	74.6	0	1	270	0.00	29.773 
20:45	92.9	92.9	104.3	56	74.8	1	3	270	0.00	29.771 
20:50	92.7	92.7	103.8	56	74.7	1	3	270	0.00	29.771 
20:55	92.5	92.5	103.9	57	75.0	1	2	270	0.00	29.771 
21:00	92.3	92.3	104.1	58	75.3	1	3	270	0.00	29.775 
21:05	92.1	92.1	104.3	59	75.7	0	1	270	0.00	29.775 
21:10	91.8	91.8	104.2	60	75.9	1	2	270	0.00	29.775 
21:15	91.4	91.4	103.1	60	75.5	0	1	270	0.00	29.767 
21:20	91.2	91.2	102.6	60	75.3	1	2	270	0.00	29.767 
21:25	91.0	91.0	102.8	61	75.6	1	2	270	0.00	29.767 
21:30	91.0	91.0	102.8	61	75.6	0	2	270	0.00	29.767 
21:35	90.7	90.7	102.0	61	75.4	1	3	270	0.00	29.767 
21:40	90.7	90.7	102.0	61	75.4	0	2	270	0.00	29.767 
21:45	90.5	90.5	102.1	62	75.7	0	1	270	0.00	29.768 
21:50	90.3	90.3	101.6	62	75.5	0	1	270	0.00	29.768 
21:55	90.1	90.1	101.1	62	75.3	0	1	270	0.00	29.768 
22:00	89.9	89.9	101.2	63	75.6	0	2	270	0.00	29.772 
22:05	89.7	89.7	100.7	63	75.4	0	2	270	0.00	29.772 
22:10	89.7	89.7	101.3	64	75.9	0	2	270	0.00	29.772 
22:15	89.5	89.5	100.7	64	75.7	0	2	270	0.00	29.776 
22:20	89.5	89.5	101.3	65	76.1	1	3	270	0.00	29.776 
22:25	89.3	89.3	100.8	65	76.0	0	2	270	0.00	29.776 
22:30	89.3	89.3	100.8	65	76.0	0	2	270	0.00	29.782 
22:35	89.3	89.3	100.8	65	76.0	0	2	270	0.00	29.782 
22:40	89.0	89.0	100.0	65	75.7	0	2	270	0.00	29.782 
22:45	89.0	89.0	100.6	66	76.1	0	2	270	0.00	29.774 
22:50	88.8	88.8	100.1	66	75.9	1	3	270	0.00	29.774 
22:55	88.8	88.8	100.1	66	75.9	0	2	270	0.00	29.774 
23:00	88.8	88.8	100.7	67	76.4	1	5	270	0.00	29.771 
23:05	88.6	88.6	100.1	67	76.2	2	3	270	0.00	29.771 
23:10	88.6	88.6	100.1	67	76.2	1	4	292	0.00	29.771 
23:15	88.4	88.4	99.6	67	76.0	2	4	270	0.00	29.775 
23:20	88.4	88.4	99.6	67	76.0	1	5	270	0.00	29.775 
23:25	88.2	88.2	99.1	67	75.8	1	4	270	0.00	29.775 
23:30	88.2	88.2	99.1	67	75.8	2	5	292	0.00	29.778 
23:35	88.0	88.0	98.6	67	75.6	1	3	292	0.00	29.778 
23:40	88.0	88.0	99.1	68	76.1	1	3	292	0.00	29.778 
23:45	87.8	87.8	98.6	68	75.9	2	4	270	0.00	29.779 
23:50	87.6	87.6	98.1	68	75.7	2	5	270	0.00	29.779 
23:55	87.6	87.6	98.1	68	75.7	2	3	270	0.00	29.779 

CoCoRaHS
IN-AL-39
A2 Web Hosting
Creative Commons License
GoDaddy
search engine by freefind advanced

loaded 2018-11-17 14:05:32 • last modified 2010-11-18 10:43:29
Privacy PolicyDisclaimer
• wx.awcolley.com is powered by PmWiki v.2002016 •
• all content (unless otherwise noted) © 2018 A W Colley